CSUN Campus Station - National Weather Service Data Page - PST Time




                Date      RH     Dew  Seasonal     Current   Max Air   Min Air    Wind    Wind    Wind    Gust     Bar    Rain
                Time       %   Point      Rain    Air Temp     Since     Since   Speed    Gust     Dir     Dir   Press   Total
                               Deg F    Inches       Deg F  Midnight  Midnight     MPH     MPH                      mb  Inches
------------------------------------------------------------------------------------------------------------------------------
    12/01/2016 00:00      53    30.1      1.78        46.9      70.0      39.1       0       0       0      47    1014    0.00
    12/01/2016 00:10      57    30.6      1.78        45.6      46.2      45.0       0       1       6      17    1014    0.00
    12/01/2016 00:20      59    31.1      1.78        44.7      46.2      44.4       0       0       0       0    1015    0.00
    12/01/2016 00:30      59    31.4      1.78        44.7      46.2      44.4       0       0       0     288    1015    0.00
    12/01/2016 00:40      61    31.6      1.78        44.6      46.2      44.2       0       0       0     261    1015    0.00
    12/01/2016 00:50      61    31.9      1.78        44.4      46.2      44.2       0       0       0     274    1014    0.00
    12/01/2016 01:00      61    31.9      1.78        44.5      46.2      44.2       0       0       0     286    1014    0.00
    12/01/2016 01:10      60    32.1      1.78        44.8      46.2      44.2       0       0       0     246    1014    0.00
    12/01/2016 01:20      60    31.9      1.78        45.4      46.2      44.2       0       0       0     354    1014    0.00
    12/01/2016 01:30      61    32.6      1.78        45.4      46.2      44.2       0       0       0     354    1014    0.00
    12/01/2016 01:40      60    32.6      1.78        45.5      46.2      44.2       0       0       0     316    1014    0.00
    12/01/2016 01:50      61    32.8      1.78        45.9      46.2      44.2       0       0       0     342    1014    0.00
    12/01/2016 02:00      63    33.2      1.78        45.5      46.2      44.2       0       0       0     326    1014    0.00
    12/01/2016 02:10      61    33.3      1.78        45.2      46.2      44.2       0       0     292     289    1014    0.00
    12/01/2016 02:20      60    32.6      1.78        45.8      46.2      44.2       0       0       0     297    1014    0.00
    12/01/2016 02:30      59    32.9      1.78        46.0      46.2      44.2       0       0       0     309    1014    0.00
    12/01/2016 02:40      59    32.7      1.78        46.2      46.4      44.2       0       0       0     339    1014    0.00
    12/01/2016 02:50      59    33.1      1.78        46.3      46.5      44.2       0       1     335     345    1014    0.00
    12/01/2016 03:00      58    32.5      1.78        46.5      46.9      44.2       0       0       0     330    1014    0.00
    12/01/2016 03:10      54    32.1      1.78        46.9      47.3      44.2       0       2     346     344    1014    0.00
    12/01/2016 03:20      56    31.8      1.78        47.5      47.7      44.2       0       0       0     337    1013    0.00
    12/01/2016 03:30      58    32.6      1.78        47.1      47.7      44.2       0       0       0      56    1013    0.00
    12/01/2016 03:40      59    32.9      1.78        46.5      47.7      44.2       0       0       0      18    1013    0.00
    12/01/2016 03:50      60    32.5      1.78        45.9      47.7      44.2       0       0       0      52    1013    0.00
    12/01/2016 04:00      62    32.8      1.78        45.5      47.7      44.2       0       0       0     247    1013    0.00
    12/01/2016 04:10      64    33.5      1.78        45.4      47.7      44.2       0       0       0     226    1013    0.00
    12/01/2016 04:20      63    33.7      1.78        45.2      47.7      44.2       0       0       0     290    1013    0.00
    12/01/2016 04:30      63    33.5      1.78        45.3      47.7      44.2       0       0       0     321    1013    0.00
    12/01/2016 04:40      65    33.3      1.78        44.9      47.7      44.2       0       0       0     333    1013    0.00
    12/01/2016 04:50      65    33.4      1.78        44.4      47.7      44.2       0       0       0     340    1013    0.00
    12/01/2016 05:00      64    33.3      1.78        44.4      47.7      44.2       0       0       0     335    1013    0.00
    12/01/2016 05:10      65    33.2      1.78        44.3      47.7      44.0       0       0       0     130    1013    0.00
    12/01/2016 05:20      66    33.4      1.78        44.0      47.7      43.8       0       1     258     260    1013    0.00
    12/01/2016 05:30      67    33.6      1.78        44.1      47.7      43.8       0       2     269     301    1013    0.00
    12/01/2016 05:40      67    33.8      1.78        44.2      47.7      43.8       0       0       0     202    1013    0.00
    12/01/2016 05:50      65    33.9      1.78        44.5      47.7      43.8       0       0       0     287    1013    0.00
    12/01/2016 06:00      65    33.8      1.78        45.0      47.7      43.8       0       0       0      51    1013    0.00
    12/01/2016 06:10      65    33.8      1.78        44.8      47.7      43.8       0       0       0      60    1013    0.00
    12/01/2016 06:20      66    33.7      1.78        44.5      47.7      43.8       0       0       0      41    1013    0.00
    12/01/2016 06:30      67    33.7      1.78        44.2      47.7      43.8       0       0       0     341    1013    0.00
    12/01/2016 06:40      68    33.9      1.78        43.8      47.7      43.6       0       0       0     294    1013    0.00
    12/01/2016 06:50      67    33.7      1.78        43.6      47.7      43.4       0       0       0     294    1013    0.00
    12/01/2016 07:00      65    33.6      1.78        44.1      47.7      43.4       0       0       0     338    1013    0.00
    12/01/2016 07:10      65    33.6      1.78        44.5      47.7      43.4       0       0       0     299    1013    0.00
    12/01/2016 07:20      62    33.2      1.78        45.1      47.7      43.4       0       0       0     325    1013    0.00
    12/01/2016 07:30      62    33.7      1.78        45.5      47.7      43.4       0       0       0     295    1014    0.00
    12/01/2016 07:40      61    33.7      1.78        46.2      47.7      43.4       0       2      87      92    1014    0.00
    12/01/2016 07:50      58    34.0      1.78        47.4      48.1      43.4       0       0       0      96    1014    0.00
    12/01/2016 08:00      58    34.0      1.78        48.1      48.4      43.4       0       0       0     183    1014    0.00
    12/01/2016 08:10      54    33.3      1.78        48.7      49.0      43.4       0       2     260     251    1014    0.00
    12/01/2016 08:20      53    32.7      1.78        49.0      49.1      43.4       0       3     257     261    1015    0.00
    12/01/2016 08:30      53    32.9      1.78        49.0      49.3      43.4       0       0     294     293    1015    0.00
    12/01/2016 08:40      51    32.9      1.78        49.4      49.6      43.4       0       0     321     312    1015    0.00
    12/01/2016 08:50      52    32.8      1.78        49.9      50.2      43.4       0       0     284     284    1015    0.00
    12/01/2016 09:00      51    33.1      1.78        50.3      50.6      43.4       0       3     261     256    1015    0.00
    12/01/2016 09:10      48    32.6      1.78        50.8      51.1      43.4       0       1     310     343    1015    0.00
    12/01/2016 09:20      47    32.6      1.78        51.6      52.2      43.4       0       0       0     323    1015    0.00
    12/01/2016 09:30      45    32.6      1.78        52.9      53.7      43.4       0       0      14      18    1015    0.00
    12/01/2016 09:40      41    31.8      1.78        54.3      55.1      43.4       0       2      69      61    1015    0.00
    12/01/2016 09:50      32    30.6      1.78        56.5      57.9      43.4       1       5      47      93    1015    0.00
    12/01/2016 10:00      30    28.7      1.78        58.4      59.1      43.4       2       5      55      86    1015    0.00
    12/01/2016 10:10      30    27.1      1.78        58.9      59.3      43.4       3       7      36      34    1015    0.00
    12/01/2016 10:20      30    27.5      1.78        59.3      59.6      43.4       2       6      34      54    1015    0.00
    12/01/2016 10:30      30    27.5      1.78        59.7      60.3      43.4       2       5      52      67    1014    0.00
    12/01/2016 10:40      31    28.8      1.78        60.6      61.3      43.4       3       6      91      56    1014    0.00
    12/01/2016 10:50      32    31.1      1.78        61.0      61.7      43.4       3       7     136     128    1014    0.00
    12/01/2016 11:00      32    31.4      1.78        61.3      62.0      43.4       4       8     143     143    1014    0.00
    12/01/2016 11:10      32    30.4      1.78        61.3      62.1      43.4       3       6     112     102    1014    0.00
    12/01/2016 11:20      30    30.9      1.78        61.6      62.1      43.4       3       6     147     142    1014    0.00
    12/01/2016 11:30      31    30.4      1.78        61.6      62.1      43.4       3       7     118      83    1013    0.00
    12/01/2016 11:40      29    30.1      1.78        61.9      62.9      43.4       4       9     140     150    1013    0.00
    12/01/2016 11:50      28    29.0      1.78        62.9      63.1      43.4       3       6     139     126    1013    0.00
    12/01/2016 12:00      28    28.5      1.78        63.3      63.7      43.4       3       7     142     151    1013    0.00
    12/01/2016 12:10      25    28.4      1.78        64.3      64.8      43.4       3       6     142     145    1013    0.00
    12/01/2016 12:20      26    27.4      1.78        62.8      64.8      43.4       2       5      91      84    1013    0.00
    12/01/2016 12:30      24    26.7      1.78        63.4      64.8      43.4       2       6     138     147    1013    0.00
    12/01/2016 12:40      24    26.3      1.78        63.4      64.8      43.4       3       8     112     165    1013    0.00
    12/01/2016 12:50      23    26.8      1.78        64.3      65.3      43.4       3       7     142     161    1012    0.00
    12/01/2016 13:00      22    26.3      1.78        65.0      65.6      43.4       4       7     160     161    1012    0.00
    12/01/2016 13:10      24    25.5      1.78        64.5      65.6      43.4       2       6     229     217    1012    0.00
    12/01/2016 13:20      22    26.4      1.78        65.7      66.5      43.4       3       6     138     147    1012    0.00
    12/01/2016 13:30      17    24.4      1.78        65.2      66.5      43.4       1       5      58     229    1012    0.00
    12/01/2016 13:40      21    21.8      1.78        64.8      66.5      43.4       5      10     284     254    1012    0.00
    12/01/2016 13:50      18    23.5      1.78        64.9      66.5      43.4       4      14      14      17    1012    0.00
    12/01/2016 14:00      17    20.9      1.78        65.5      66.5      43.4       3       7      40      69    1012    0.00
    12/01/2016 14:10      17    19.0      1.78        65.5      66.5      43.4       4      11     316     342    1012    0.00
    12/01/2016 14:20      17    18.7      1.78        65.2      66.5      43.4       4      10     298     308    1012    0.00
    12/01/2016 14:30      17    19.8      1.78        65.4      66.5      43.4       3       8      22       8    1011    0.00
    12/01/2016 14:40      16    19.5      1.78        65.3      66.5      43.4       2       6      22     337    1011    0.00
    12/01/2016 14:50      18    19.7      1.78        65.2      66.5      43.4       4      15     320     263    1011    0.00
    12/01/2016 15:00      16    19.1      1.78        65.6      66.5      43.4       2      11     345     347    1011    0.00
    12/01/2016 15:10      16    17.5      1.78        65.3      66.5      43.4       4       9     340     348    1011    0.00
    12/01/2016 15:20      16    17.1      1.78        64.6      66.5      43.4       5      12     337     351    1011    0.00
    12/01/2016 15:30      16    17.0      1.78        64.3      66.5      43.4       5      11     334     345    1011    0.00
    12/01/2016 15:40      16    17.0      1.78        64.2      66.5      43.4       3       9     329     307    1011    0.00
    12/01/2016 15:50      16    16.8      1.78        64.0      66.5      43.4       4      10     337      -0    1011    0.00
    12/01/2016 16:00      16    16.6      1.78        63.8      66.5      43.4       4      11     325     328    1011    0.00
    12/01/2016 16:10      16    16.5      1.78        63.4      66.5      43.4       4      12     338     347    1011    0.00
    12/01/2016 16:20      17    16.4      1.78        62.7      66.5      43.4       4      11     339     301    1011    0.00
    12/01/2016 16:30      16    16.3      1.78        62.4      66.5      43.4       3      11     339     337    1011    0.00
    12/01/2016 16:40      17    16.0      1.78        62.0      66.5      43.4       5      13     339       0    1011    0.00
    12/01/2016 16:50      17    15.7      1.78        61.4      66.5      43.4       4       9     332     332    1012    0.00
    12/01/2016 17:00      17    15.5      1.78        61.1      66.5      43.4       4      12     336     344    1012    0.00
    12/01/2016 17:10      20    16.1      1.78        60.5      66.5      43.4       3       9     301     331    1012    0.00
    12/01/2016 17:20      37    28.9      1.78        58.7      66.5      43.4       2       6     286     277    1012    0.00
    12/01/2016 17:30      32    26.0      1.78        57.8      66.5      43.4       3       5     295     348    1012    0.00
    12/01/2016 17:40      40    30.9      1.78        57.2      66.5      43.4       2       5     294     303    1012    0.00
    12/01/2016 17:50      42    33.2      1.78        56.4      66.5      43.4       3       7     293     274    1012    0.00
    12/01/2016 18:00      33    30.2      1.78        56.0      66.5      43.4       2       4     291     291    1012    0.00
    12/01/2016 18:10      31    25.8      1.78        56.6      66.5      43.4       3       7     317     298    1012    0.00
    12/01/2016 18:20      32    26.7      1.78        56.5      66.5      43.4       4      13     325     347    1012    0.00
    12/01/2016 18:30      34    27.3      1.78        55.9      66.5      43.4       4      11     322     332    1012    0.00
    12/01/2016 18:40      36    28.3      1.78        55.1      66.5      43.4       6      16     328     334    1012    0.00
    12/01/2016 18:50      38    28.9      1.78        54.7      66.5      43.4       5      14     323     336    1012    0.00
    12/01/2016 19:00      38    29.1      1.78        54.5      66.5      43.4       5      12     328     306    1012    0.00
    12/01/2016 19:10      40    29.7      1.78        54.3      66.5      43.4       5      14     328     346    1013    0.00
    12/01/2016 19:20      40    30.2      1.78        54.0      66.5      43.4       3      10     342     320    1012    0.00
    12/01/2016 19:30      40    30.2      1.78        53.9      66.5      43.4       6      16     346     332    1012    0.00
    12/01/2016 19:40      39    29.9      1.78        53.8      66.5      43.4       5      13     344     325    1012    0.00
    12/01/2016 19:50      39    29.5      1.78        53.9      66.5      43.4       6      14     337     343    1012    0.00
    12/01/2016 20:00      38    29.3      1.78        53.9      66.5      43.4       5      10     338       2    1013    0.00
    12/01/2016 20:10      37    28.8      1.78        53.9      66.5      43.4       5      12     332     343    1013    0.00
    12/01/2016 20:20      37    28.1      1.78        54.0      66.5      43.4       6      14     348     341    1013    0.00
    12/01/2016 20:30      38    28.5      1.78        53.8      66.5      43.4       5      10       7      11    1013    0.00
    12/01/2016 20:40      39    28.6      1.78        53.6      66.5      43.4       3      13       9     321    1013    0.00
    12/01/2016 20:50      39    29.0      1.78        53.3      66.5      43.4       4       9      10     355    1013    0.00
    12/01/2016 21:00      40    29.1      1.78        53.1      66.5      43.4       4       8      33      46    1013    0.00
    12/01/2016 21:10      38    28.8      1.78        53.2      66.5      43.4       5      10      37      37    1013    0.00
    12/01/2016 21:20      38    28.3      1.78        53.5      66.5      43.4       5      10      42      58    1013    0.00
    12/01/2016 21:30      40    28.8      1.78        53.1      66.5      43.4       3       7      11      38    1013    0.00
    12/01/2016 21:40      40    28.9      1.78        52.8      66.5      43.4       3       9     355     338    1013    0.00
    12/01/2016 21:50      39    29.0      1.78        52.8      66.5      43.4       4      11     355     334    1013    0.00
    12/01/2016 22:00      38    28.6      1.78        53.4      66.5      43.4       5      15     353       3    1013    0.00
    12/01/2016 22:10      38    28.3      1.78        53.6      66.5      43.4       5      13     344     335    1013    0.00
    12/01/2016 22:20      38    28.7      1.78        53.4      66.5      43.4       4      10       4     339    1013    0.00
    12/01/2016 22:30      39    28.8      1.78        53.2      66.5      43.4       2       7      20      11    1013    0.00
    12/01/2016 22:40      40    29.0      1.78        53.0      66.5      43.4       2       9     352       4    1013    0.00
    12/01/2016 22:50      40    29.1      1.78        52.9      66.5      43.4       2      10     359     345    1013    0.00
    12/01/2016 23:00      40    29.4      1.78        53.0      66.5      43.4       2      11     341     320    1014    0.00
    12/01/2016 23:10      41    29.5      1.78        52.8      66.5      43.4       2       9     351     336    1014    0.00
    12/01/2016 23:20      41    29.8      1.78        53.0      66.5      43.4       3      13       1       3    1014    0.00
    12/01/2016 23:30      41    29.9      1.78        52.8      66.5      43.4       3      10     347     294    1013    0.00
    12/01/2016 23:40      41    29.8      1.78        52.8      66.5      43.4       4      11     344     350    1014    0.00
    12/01/2016 23:50      42    30.0      1.78        52.7      66.5      43.4       5      12     343     336    1013    0.00
    12/02/2016 00:00      42    30.2      1.78        52.6      66.5      43.4       4      12     351      28    1013    0.00
    12/02/2016 00:10      42    30.1      1.78        52.4      52.5      52.2       4      11     339       4    1013    0.00
    12/02/2016 00:20      43    30.3      1.78        52.2      52.5      52.0       3      12     339     318    1014    0.00
    12/02/2016 00:30      42    29.8      1.78        52.1      52.5      51.9       2      11     342     320    1014    0.00
    12/02/2016 00:40      41    29.3      1.78        52.0      52.5      51.8       2       9     344     328    1014    0.00
    12/02/2016 00:50      40    29.0      1.78        52.0      52.5      51.8       3       9     344     329    1014    0.00
    12/02/2016 01:00      40    28.8      1.78        52.3      52.5      51.8       5      14     348     345    1014    0.00
    12/02/2016 01:10      40    28.8      1.78        52.3      52.5      51.8       5      17     349     343    1014    0.00
    12/02/2016 01:20      41    28.9      1.78        52.3      52.6      51.8       6      15     352     339    1014    0.00
    12/02/2016 01:30      41    29.1      1.78        52.3      52.6      51.8       6      16     346     352    1014    0.00
    12/02/2016 01:40      41    29.1      1.78        52.3      52.6      51.8       6      13     356     295    1014    0.00
    12/02/2016 01:50      41    29.2      1.78        52.3      52.6      51.8       6      15     349     341    1014    0.00
    12/02/2016 02:00      41    29.3      1.78        52.2      52.6      51.8       6      13     340     321    1014    0.00
    12/02/2016 02:10      42    29.4      1.78        52.0      52.6      51.8       5      13     345     303    1014    0.00
    12/02/2016 02:20      42    29.3      1.78        51.9      52.6      51.7       6      14     343     304    1014    0.00
    12/02/2016 02:30      40    28.9      1.78        51.8      52.6      51.6       6      12     340     330    1014    0.00
    12/02/2016 02:40      38    28.0      1.78        52.1      52.6      51.6       7      16     343     332    1014    0.00
    12/02/2016 02:50      35    26.5      1.78        52.4      52.6      51.6       7      17     343     355    1014    0.00
    12/02/2016 03:00      33    25.2      1.78        52.6      52.9      51.6       8      17     343      43    1014    0.00
    12/02/2016 03:10      31    24.1      1.78        52.7      53.0      51.6       7      17     340      11    1014    0.00
    12/02/2016 03:20      30    22.8      1.78        53.0      53.1      51.6       7      16     342     337    1014    0.00
    12/02/2016 03:30      30    22.4      1.78        52.7      53.1      51.6       5      12     339     323    1014    0.00
    12/02/2016 03:40      30    21.9      1.78        52.7      53.1      51.6       6      14     333     331    1014    0.00
    12/02/2016 03:50      29    21.4      1.78        52.6      53.1      51.6       6      13     333     343    1014    0.00
    12/02/2016 04:00      29    21.1      1.78        52.4      53.1      51.6       5      11     330     344    1014    0.00
    12/02/2016 04:10      28    20.4      1.78        52.3      53.1      51.6       5      12     333     341    1014    0.00
    12/02/2016 04:20      29    20.1      1.78        52.2      53.1      51.6       3       8     322     343    1014    0.00
    12/02/2016 04:30      28    19.7      1.78        51.6      53.1      51.3       4      10     325     344    1014    0.00
    12/02/2016 04:40      28    19.3      1.78        51.1      53.1      50.9       3       8     322     340    1014    0.00
    12/02/2016 04:50      27    18.4      1.78        51.1      53.1      50.9       3       7     324     353    1014    0.00
    12/02/2016 05:00      26    17.9      1.78        51.3      53.1      50.9       4       9     331     330    1014    0.00
    12/02/2016 05:10      25    17.4      1.78        51.4      53.1      50.9       5      12     329     342    1014    0.00
    12/02/2016 05:20      25    16.8      1.78        51.7      53.1      50.9       6      15     337       0    1015    0.00
    12/02/2016 05:30      24    16.4      1.78        51.7      53.1      50.9       4      10     335     352    1015    0.00
    12/02/2016 05:40      23    15.8      1.78        51.8      53.1      50.9       4      12     342       5    1015    0.00
    12/02/2016 05:50      22    14.7      1.78        52.3      53.1      50.9       6      16     352     328    1015    0.00
    12/02/2016 06:00      22    14.6      1.78        52.2      53.1      50.9       6      13     354       4    1015    0.00
    12/02/2016 06:10      22    14.7      1.78        52.0      53.1      50.9       4      11     347     346    1015    0.00
    12/02/2016 06:20      23    14.6      1.78        51.9      53.1      50.9       4      10     350       6    1015    0.00
    12/02/2016 06:30      23    14.6      1.78        51.8      53.1      50.9       3      10     352      15    1015    0.00
    12/02/2016 06:40      22    14.3      1.78        52.0      53.1      50.9       4      12       6       6    1015    0.00
    12/02/2016 06:50      22    14.1      1.78        52.0      53.1      50.9       4      12       0      72    1015    0.00
    12/02/2016 07:00      21    13.7      1.78        51.9      53.1      50.9       4      11      19      83    1015    0.00
    12/02/2016 07:10      21    13.5      1.78        51.9      53.1      50.9       5      13      30     354    1016    0.00
    12/02/2016 07:20      21    13.5      1.78        51.9      53.1      50.9       4      11      18      54    1016    0.00
    12/02/2016 07:30      21    13.7      1.78        52.1      53.1      50.9       5      13     352     347    1016    0.00
    12/02/2016 07:40      22    14.0      1.78        52.2      53.1      50.9       4      12     355     353    1016    0.00
    12/02/2016 07:50      21    14.1      1.78        52.4      53.1      50.9       4      13       4       0    1016    0.00
    12/02/2016 08:00      21    14.2      1.78        52.5      53.1      50.9       4      12       7      -0    1016    0.00
    12/02/2016 08:10      21    14.0      1.78        52.6      53.1      50.9       5      12     356      41    1016    0.00
    12/02/2016 08:20      19    13.3      1.78        52.8      53.2      50.9       6      14       6       9    1016    0.00
    12/02/2016 08:30      18    11.1      1.78        53.2      53.4      50.9       8      20      10     340    1016    0.00
    12/02/2016 08:40      18    10.5      1.78        53.4      53.6      50.9       7      18      15     353    1016    0.00
    12/02/2016 08:50      16     9.8      1.78        53.8      54.1      50.9       9      23       5      18    1016    0.00
    12/02/2016 09:00      16     9.2      1.78        54.2      54.8      50.9       9      20      14     355    1016    0.00
    12/02/2016 09:10      16     9.0      1.78        54.7      54.9      50.9       8      28      19      63    1016    0.00
    12/02/2016 09:20      16     9.1      1.78        54.8      55.0      50.9       8      21       6     331    1016    0.00
    12/02/2016 09:30      16     9.0      1.78        54.8      55.0      50.9      12      24       2      17    1016    0.00
    12/02/2016 09:40      16     9.3      1.78        54.9      55.4      50.9       9      22       3      16    1016    0.00
    12/02/2016 09:50      16     9.3      1.78        55.5      55.9      50.9       9      18      18       7    1016    0.00
    12/02/2016 10:00      15     9.4      1.78        56.0      56.3      50.9      10      22      21      50    1016    0.00
    12/02/2016 10:10      15     9.2      1.78        56.3      56.7      50.9      10      29      28      44    1016    0.00
    12/02/2016 10:20      14     9.1      1.78        56.8      57.0      50.9      12      26      44      35    1016    0.00
    12/02/2016 10:30      14     8.6      1.78        56.9      57.2      50.9      12      26      23       5    1016    0.00
    12/02/2016 10:40      14     8.6      1.78        57.0      57.3      50.9      11      26      23      37    1016    0.00
    12/02/2016 10:50      14     8.4      1.78        57.5      57.8      50.9       9      21      24      41    1016    0.00
    12/02/2016 11:00      14     8.3      1.78        57.7      58.2      50.9      10      25      15     340    1016    0.00
    12/02/2016 11:10      13     8.2      1.78        57.9      58.4      50.9      12      25      20      10    1016    0.00
    12/02/2016 11:20      13     8.0      1.78        57.6      58.4      50.9      12      30      36      72    1016    0.00
    12/02/2016 11:30      14     7.8      1.78        57.4      58.4      50.9      14      27      44      65    1016    0.00
    12/02/2016 11:40      14     8.3      1.78        58.1      58.4      50.9      12      24      45      47    1016    0.00
    12/02/2016 11:50      13     7.5      1.78        58.4      58.7      50.9      10      24      26       6    1016    0.00
    12/02/2016 12:00      12     7.2      1.78        58.5      58.9      50.9      14      30      43      62    1016    0.00
    12/02/2016 12:10      12     7.6      1.78        59.0      59.7      50.9      10      25      26       9    1015    0.00
    12/02/2016 12:20      12     7.3      1.78        59.8      60.5      50.9       8      20      17      31    1015    0.00
    12/02/2016 12:30      12     7.0      1.78        59.9      60.5      50.9      10      20      10      14    1015    0.00
    12/02/2016 12:40      12     6.9      1.78        59.3      60.5      50.9      11      24      12     337    1015    0.00
    12/02/2016 12:50      12     6.7      1.78        59.5      60.5      50.9       9      26      10      15    1015    0.00
    12/02/2016 13:00      12     7.0      1.78        59.5      60.5      50.9       9      28      27      53    1015    0.00
    12/02/2016 13:10      12     6.6      1.78        59.5      60.5      50.9       9      24      20      55    1015    0.00
    12/02/2016 13:20      11     6.5      1.78        59.5      60.5      50.9      10      25      12     352    1015    0.00
    12/02/2016 13:30      11     5.7      1.78        59.5      60.5      50.9      11      24      31      60    1015    0.00
    12/02/2016 13:40      11     5.7      1.78        59.3      60.5      50.9      11      27      39      60    1015    0.00
    12/02/2016 13:50      11     5.5      1.78        59.7      60.5      50.9      10      25      33      30    1015    0.00
    12/02/2016 14:00      11     4.4      1.78        59.4      60.5      50.9      10      24      19      65    1015    0.00
    12/02/2016 14:10      10     3.9      1.78        59.3      60.5      50.9      10      23      36      54    1015    0.00
    12/02/2016 14:20      10     3.8      1.78        59.3      60.5      50.9       9      23      22       5    1015    0.00
    12/02/2016 14:30      10     3.2      1.78        59.3      60.5      50.9      10      27      35      41    1015    0.00
    12/02/2016 14:40      10     2.7      1.78        59.2      60.5      50.9       8      26      29      67    1016    0.00
    12/02/2016 14:50      10     2.7      1.78        59.4      60.5      50.9       9      22      34      43    1016    0.00
    12/02/2016 15:00      10     2.5      1.78        59.1      60.5      50.9       9      18      34      25    1016    0.00
    12/02/2016 15:10      10     2.2      1.78        59.2      60.5      50.9       8      19      35      52    1016    0.00
    12/02/2016 15:20      10     1.5      1.78        58.9      60.5      50.9      11      22      43      51    1016    0.00
    12/02/2016 15:30      10     2.1      1.78        58.9      60.5      50.9       8      15      48      69    1016    0.00
    12/02/2016 15:40      10     1.9      1.78        58.9      60.5      50.9       6      15      32      34    1016    0.00
    12/02/2016 15:50      10     2.0      1.78        59.0      60.5      50.9       6      20      10      20    1016    0.00
    12/02/2016 16:00       9     1.8      1.78        58.8      60.5      50.9       6      19      23     343    1016    0.00
    12/02/2016 16:10      10     1.4      1.78        58.5      60.5      50.9       6      16      15       3    1016    0.00
    12/02/2016 16:20      10     1.1      1.78        57.9      60.5      50.9       6      16      11     318    1016    0.00
    12/02/2016 16:30      10     1.1      1.78        57.5      60.5      50.9       7      18      11      17    1016    0.00
    12/02/2016 16:40      10     1.3      1.78        57.2      60.5      50.9       7      18      13     355    1016    0.00
    12/02/2016 16:50      11     1.5      1.78        56.9      60.5      50.9       7      19      20      33    1016    0.00
    12/02/2016 17:00      11     1.6      1.78        56.7      60.5      50.9       7      15       6      17    1016    0.00
    12/02/2016 17:10      11     2.1      1.78        56.3      60.5      50.9       6      13       7     319    1016    0.00
    12/02/2016 17:20      11     2.0      1.78        55.9      60.5      50.9       5      12      12      29    1016    0.00
    12/02/2016 17:30      11     2.1      1.78        55.7      60.5      50.9       5      13       6     339    1016    0.00
    12/02/2016 17:40      11     2.2      1.78        55.6      60.5      50.9       4      15      14      46    1016    0.00
    12/02/2016 17:50      11     2.4      1.78        55.4      60.5      50.9       3       8      12     314    1016    0.00
    12/02/2016 18:00      11     2.4      1.78        55.4      60.5      50.9       4      14       2     325    1016    0.00
    12/02/2016 18:10      11     2.3      1.78        55.4      60.5      50.9       4      14      17     305    1016    0.00
    12/02/2016 18:20      11     2.4      1.78        55.6      60.5      50.9       3       9      24      30    1017    0.00
    12/02/2016 18:30      11     2.4      1.78        55.6      60.5      50.9       3      11       9      30    1017    0.00
    12/02/2016 18:40      11     2.5      1.78        55.4      60.5      50.9       5      11     358      12    1017    0.00
    12/02/2016 18:50      11     2.3      1.78        55.6      60.5      50.9       5      15       2     337    1017    0.00
    12/02/2016 19:00      11     2.2      1.78        55.8      60.5      50.9       5      13       2      15    1017    0.00
    12/02/2016 19:10      11     2.1      1.78        55.9      60.5      50.9       5      14      20      36    1017    0.00
    12/02/2016 19:20      11     2.2      1.78        55.9      60.5      50.9       3       8      24      45    1017    0.00
    12/02/2016 19:30      11     2.1      1.78        55.9      60.5      50.9       5      16      19     347    1017    0.00
    12/02/2016 19:40      11     1.8      1.78        56.3      60.5      50.9       6      14      47      42    1017    0.00
    12/02/2016 19:50      11     1.9      1.78        56.3      60.5      50.9       6      13      45      41    1017    0.00
    12/02/2016 20:00      10     1.6      1.78        56.6      60.5      50.9       7      16      30      43    1017    0.00
    12/02/2016 20:10      11     2.0      1.78        56.5      60.5      50.9       4      13      13      30    1017    0.00
    12/02/2016 20:20      11     2.0      1.78        56.2      60.5      50.9       4      12      34      60    1017    0.00
    12/02/2016 20:30      11     1.7      1.78        56.7      60.5      50.9       7      19      25      29    1017    0.00
    12/02/2016 20:40      10     1.6      1.78        56.9      60.5      50.9       8      23      33      44    1017    0.00
    12/02/2016 20:50      10     1.9      1.78        56.8      60.5      50.9       5      13      25      17    1017    0.00
    12/02/2016 21:00      10     1.7      1.78        56.8      60.5      50.9       6      13      27     353    1017    0.00
    12/02/2016 21:10      10     1.9      1.78        56.7      60.5      50.9       6      16      19      61    1017    0.00
    12/02/2016 21:20      11     2.0      1.78        56.6      60.5      50.9       5      17      22      14    1018    0.00
    12/02/2016 21:30      11     2.0      1.78        56.6      60.5      50.9       7      19      24     345    1018    0.00
    12/02/2016 21:40      11     2.1      1.78        56.7      60.5      50.9       6      18      34      45    1018    0.00
    12/02/2016 21:50      11     2.2      1.78        56.4      60.5      50.9       7      16      24      54    1018    0.00
    12/02/2016 22:00      10     2.0      1.78        56.7      60.5      50.9       7      17      21      45    1018    0.00
    12/02/2016 22:10      10     1.7      1.78        56.9      60.5      50.9      10      21      40      33    1018    0.00
    12/02/2016 22:20      10     1.6      1.78        56.8      60.5      50.9       8      15      42      34    1018    0.00
    12/02/2016 22:30      10     1.5      1.78        56.9      60.5      50.9      11      26      32      59    1018    0.00
    12/02/2016 22:40      10     1.6      1.78        56.8      60.5      50.9       8      19      27      36    1018    0.00
    12/02/2016 22:50      10     1.6      1.78        56.7      60.5      50.9       9      22      42      44    1018    0.00
    12/02/2016 23:00      10     1.3      1.78        56.8      60.5      50.9      10      25      21      54    1018    0.00
    12/02/2016 23:10      10     1.3      1.78        56.8      60.5      50.9      10      26      32      42    1018    0.00
    12/02/2016 23:20      10     1.4      1.78        56.7      60.5      50.9       9      22      28      56    1018    0.00
    12/02/2016 23:30      11     1.5      1.78        56.6      60.5      50.9       7      18      15      44    1018    0.00
    12/02/2016 23:40      11     1.5      1.78        56.4      60.5      50.9       9      19      26      59    1018    0.00
    12/02/2016 23:50      11     1.7      1.78        56.4      60.5      50.9       7      17      27      93    1018    0.00
    12/03/2016 00:00      11     1.8      1.78        56.1      60.5      50.9       8      19      22      55    1018    0.00
    12/03/2016 00:10      11     1.8      1.78        56.1      56.3      55.9       8      18      23      11    1018    0.00
    12/03/2016 00:20      11     2.0      1.78        56.0      56.3      55.6       7      15      36     340    1018    0.00
    12/03/2016 00:30      11     1.9      1.78        55.9      56.3      55.6       8      23      18      36    1018    0.00
    12/03/2016 00:40      11     1.8      1.78        56.1      56.4      55.6       9      20      11     353    1018    0.00
    12/03/2016 00:50      11     1.9      1.78        56.0      56.4      55.6       8      22      19       9    1018    0.00
    12/03/2016 01:00      11     1.8      1.78        56.0      56.4      55.6       7      16      13      37    1018    0.00
    12/03/2016 01:10      11     1.8      1.78        56.1      56.4      55.6       8      21      15      37    1018    0.00
    12/03/2016 01:20      11     1.8      1.78        56.0      56.4      55.6       8      15       3       3    1018    0.00
    12/03/2016 01:30      11     2.1      1.78        55.9      56.4      55.5       7      15     352     346    1018    0.00
    12/03/2016 01:40      11     2.1      1.78        55.9      56.4      55.5       9      19     358      -0    1018    0.00
    12/03/2016 01:50      11     1.9      1.78        55.9      56.4      55.5       8      17     355      34    1018    0.00
    12/03/2016 02:00      11     1.6      1.78        56.0      56.4      55.5       8      18     359      20    1018    0.00
    12/03/2016 02:10      10     1.3      1.78        56.0      56.4      55.5       9      22       5     327    1018    0.00
    12/03/2016 02:20      10     1.1      1.78        56.1      56.4      55.5       8      18     356      36    1018    0.00
    12/03/2016 02:30      10     0.6      1.78        56.3      56.6      55.5      10      17       7      24    1018    0.00
    12/03/2016 02:40      10     0.6      1.78        56.4      56.6      55.5       9      16       1      12    1018    0.00
    12/03/2016 02:50      10     0.8      1.78        56.2      56.7      55.5       9      19     354     335    1017    0.00
    12/03/2016 03:00      10     1.0      1.78        55.9      56.7      55.5       7      15     353       0    1017    0.00
    12/03/2016 03:10      10     1.1      1.78        55.7      56.7      55.4       7      18     355       2    1017    0.00
    12/03/2016 03:20      10     1.1      1.78        55.6      56.7      55.4       6      18     349     345    1017    0.00
    12/03/2016 03:30      10     0.6      1.78        55.9      56.7      55.4       8      19     348     345    1017    0.00
    12/03/2016 03:40      10     0.3      1.78        56.1      56.7      55.4       7      18     350     339    1017    0.00
    12/03/2016 03:50      10     0.2      1.78        56.4      56.7      55.4       7      19     348     333    1017    0.00
    12/03/2016 04:00      10     0.0      1.78        56.2      56.7      55.4       8      21     348     354    1017    0.00
    12/03/2016 04:10      10    -0.3      1.78        56.5      56.8      55.4       9      21     352      36    1017    0.00
    12/03/2016 04:20       9    -0.5      1.78        56.5      56.8      55.4       8      19     353     349    1017    0.00
    12/03/2016 04:30       9    -0.7      1.78        56.6      56.9      55.4       8      21     356     351    1017    0.00
    12/03/2016 04:40      10    -0.3      1.78        56.3      56.9      55.4       7      18     356     348    1017    0.00
    12/03/2016 04:50      10    -0.1      1.78        56.0      56.9      55.4       9      22     345     237    1017    0.00
    12/03/2016 05:00      10     0.2      1.78        55.5      56.9      55.3       7      17     345      29    1017    0.00
    12/03/2016 05:10      11     0.4      1.78        55.3      56.9      55.0       8      19     348     352    1017    0.00
    12/03/2016 05:20      10     0.2      1.78        55.2      56.9      55.0       8      19     341      29    1017    0.00
    12/03/2016 05:30      11     0.6      1.78        55.1      56.9      54.6       8      21     331     354    1017    0.00
    12/03/2016 05:40      11     0.9      1.78        54.6      56.9      54.4       8      19     334     327    1018    0.00
    12/03/2016 05:50      11     0.7      1.78        54.5      56.9      54.4       8      16     328     339    1018    0.00
    12/03/2016 06:00      11     0.6      1.78        54.4      56.9      54.2       6      16     328     345    1018    0.00
    12/03/2016 06:10      11     0.5      1.78        54.5      56.9      54.2       7      19     331     340    1018    0.00
    12/03/2016 06:20      10    -0.3      1.78        54.9      56.9      54.2      10      20     330     335    1017    0.00
    12/03/2016 06:30      10    -0.6      1.78        55.4      56.9      54.2       8      19     329     324    1017    0.00
    12/03/2016 06:40      10    -0.3      1.78        55.1      56.9      54.2       9      22     329     340    1017    0.00
    12/03/2016 06:50      10    -0.0      1.78        54.8      56.9      54.2       7      16     329     330    1018    0.00
    12/03/2016 07:00      10    -0.4      1.78        55.1      56.9      54.2       7      14     322     342    1018    0.00
    12/03/2016 07:10      10    -0.5      1.78        55.2      56.9      54.2       7      17     326     340    1018    0.00
    12/03/2016 07:20      10    -0.4      1.78        55.3      56.9      54.2       9      18     334     335    1017    0.00
    12/03/2016 07:30      10    -0.3      1.78        55.4      56.9      54.2       8      23     339     340    1017    0.00
    12/03/2016 07:40      10    -0.1      1.78        55.6      56.9      54.2       6      21     341     351    1018    0.00
    12/03/2016 07:50      10     0.2      1.78        55.7      56.9      54.2       7      18     346      15    1018    0.00
    12/03/2016 08:00      10     0.0      1.78        56.0      56.9      54.2       8      18     338      15    1018    0.00
    12/03/2016 08:10      10     0.2      1.78        56.5      56.9      54.2       6      20     344     342    1018    0.00
    12/03/2016 08:20      10     0.1      1.78        56.9      57.2      54.2       6      21     341     307    1018    0.00
    12/03/2016 08:30       9    -0.1      1.78        57.3      57.6      54.2       7      24     340     335    1018    0.00
    12/03/2016 08:40       9    -0.2      1.78        57.8      58.1      54.2       8      20     349      19    1018    0.00
    12/03/2016 08:50       9    -0.2      1.78        58.3      58.5      54.2       9      27     336       7    1018    0.00
    12/03/2016 09:00       9     0.2      1.78        58.6      58.9      54.2       8      20     340     345    1018    0.00
    12/03/2016 09:10       9     0.5      1.78        59.2      59.5      54.2       8      24     339      15    1018    0.00
    12/03/2016 09:20       8     0.7      1.78        59.8      60.3      54.2       8      18     345     333    1018    0.00
    12/03/2016 09:30       8     0.2      1.78        60.6      61.1      54.2       7      21     346     335    1018    0.00
    12/03/2016 09:40       9     0.6      1.78        61.0      61.2      54.2       8      22     342      39    1018    0.00
    12/03/2016 09:50       8     0.6      1.78        61.7      62.4      54.2       6      17     339     326    1019    0.00
    12/03/2016 10:00       7     0.2      1.78        62.7      63.0      54.2       6      21     345       0    1019    0.00
    12/03/2016 10:10       8    -0.1      1.78        63.0      63.3      54.2       8      19     345     341    1019    0.00
    12/03/2016 10:20       8     0.1      1.78        63.5      63.9      54.2       6      17     354     324    1018    0.00
    12/03/2016 10:30       7     0.2      1.78        64.3      64.8      54.2       5      13     345       4    1018    0.00
    12/03/2016 10:40       8     0.0      1.78        64.6      64.9      54.2       6      16       5      19    1018    0.00
    12/03/2016 10:50       7     0.6      1.78        65.0      65.3      54.2       6      18     351     346    1018    0.00
    12/03/2016 11:00       7    -0.0      1.78        65.7      66.3      54.2       6      19     349     337    1018    0.00
    12/03/2016 11:10       7    -0.4      1.78        66.6      67.0      54.2       6      19     342     344    1018    0.00
    12/03/2016 11:20       6    -0.4      1.78        67.2      67.8      54.2       5      15     347     314    1017    0.00
    12/03/2016 11:30       6    -1.3      1.78        67.2      67.8      54.2       9      19     343     347    1017    0.00
    12/03/2016 11:40       7    -0.2      1.78        67.4      67.8      54.2       7      17     341     345    1017    0.00
    12/03/2016 11:50       7    -0.0      1.78        67.9      68.3      54.2       6      14     356      25    1017    0.00
    12/03/2016 12:00       6     0.3      1.78        68.8      69.1      54.2       6      17       5      14    1017    0.00
    12/03/2016 12:10      10     2.3      1.78        68.4      69.1      54.2       7      15      33       6    1017    0.00
    12/03/2016 12:20      10     9.0      1.78        67.8      69.1      54.2       3       8      81      98    1017    0.00
    12/03/2016 12:30      10     9.6      1.78        67.4      69.1      54.2       3       8     111     139    1017    0.00
    12/03/2016 12:40      10     9.5      1.78        67.9      69.1      54.2       3       8     132      89    1017    0.00
    12/03/2016 12:50      10    10.4      1.78        68.0      69.1      54.2       3       7     133      93    1017    0.00
    12/03/2016 13:00      11    10.3      1.78        67.7      69.1      54.2       3       7     102      83    1016    0.00
    12/03/2016 13:10      11    10.7      1.78        67.9      69.1      54.2       2       6     108      55    1016    0.00
    12/03/2016 13:20      11    12.2      1.78        68.9      69.5      54.2       3       8     169     152    1016    0.00
    12/03/2016 13:30      10    11.8      1.78        68.8      69.5      54.2       2       5     163     170    1016    0.00
    12/03/2016 13:40      10    12.5      1.78        69.4      69.8      54.2       3       6     160     164    1016    0.00
    12/03/2016 13:50      11    11.1      1.78        69.3      70.0      54.2       3       6     168      58    1016    0.00
    12/03/2016 14:00       8     8.8      1.78        68.8      70.0      54.2       6      12      86      50    1016    0.00
    12/03/2016 14:10      10     7.2      1.78        69.3      70.0      54.2       5      12      30      -0    1016    0.00
    12/03/2016 14:20       7     6.1      1.78        69.7      70.1      54.2       3      14      12     324    1016    0.00
    12/03/2016 14:30       7     3.5      1.78        69.9      70.1      54.2       5      17     334     325    1016    0.00
    12/03/2016 14:40       7     3.5      1.78        69.7      70.1      54.2       6      17     322     323    1016    0.00
    12/03/2016 14:50       7     3.2      1.78        69.5      70.1      54.2       7      23     325     338    1016    0.00
    12/03/2016 15:00       7     3.1      1.78        69.3      70.1      54.2       7      19     330     297    1016    0.00
    12/03/2016 15:10       8     3.7      1.78        69.3      70.1      54.2       4      12     352      19    1016    0.00
    12/03/2016 15:20       8     4.0      1.78        69.1      70.1      54.2       4      13       5      39    1016    0.00
    12/03/2016 15:30       8     5.8      1.78        68.9      70.1      54.2       5      11      11       0    1016    0.00
    12/03/2016 15:40       8     4.7      1.78        68.6      70.1      54.2       5      16       3     354    1016    0.00
    12/03/2016 15:50       8     4.1      1.78        68.3      70.1      54.2       6      16     346     340    1016    0.00
    12/03/2016 16:00       8     4.1      1.78        67.9      70.1      54.2       7      18     349     329    1016    0.00
    12/03/2016 16:10       8     4.3      1.78        67.5      70.1      54.2       5      13     347     351    1016    0.00
    12/03/2016 16:20       8     3.9      1.78        66.9      70.1      54.2       5      16     341     336    1016    0.00
    12/03/2016 16:30       8     3.8      1.78        66.4      70.1      54.2       4      11     344     354    1016    0.00
    12/03/2016 16:40       9     4.0      1.78        66.0      70.1      54.2       5      14     353       2    1016    0.00
    12/03/2016 16:50       9     4.3      1.78        65.7      70.1      54.2       7      16     345      17    1016    0.00
    12/03/2016 17:00       9     4.5      1.78        65.5      70.1      54.2       7      16     352       2    1016    0.00
    12/03/2016 17:10       9     4.8      1.78        65.2      70.1      54.2       8      17     349     324    1016    0.00
    12/03/2016 17:20       9     5.3      1.78        65.1      70.1      54.2       6      15     351     352    1016    0.00
    12/03/2016 17:30      10     6.0      1.78        65.0      70.1      54.2       4      11     342       8    1016    0.00
    12/03/2016 17:40      10     6.3      1.78        65.0      70.1      54.2       5      18     341     335    1016    0.00
    12/03/2016 17:50       9     6.1      1.78        65.3      70.1      54.2       6      16     341     328    1016    0.00
    12/03/2016 18:00       9     6.1      1.78        65.3      70.1      54.2       5      12     337      25    1016    0.00
    12/03/2016 18:10       9     5.8      1.78        65.2      70.1      54.2       7      15     337     336    1016    0.00
    12/03/2016 18:20      10     5.7      1.78        64.9      70.1      54.2       7      16     336     315    1016    0.00
    12/03/2016 18:30       9     5.4      1.78        64.5      70.1      54.2       9      19     324     339    1016    0.00
    12/03/2016 18:40      10     5.3      1.78        64.0      70.1      54.2       9      17     332     324    1016    0.00
    12/03/2016 18:50       9     5.1      1.78        63.9      70.1      54.2       9      20     333     320    1016    0.00
    12/03/2016 19:00      10     5.1      1.78        63.8      70.1      54.2       9      19     334     335    1016    0.00
    12/03/2016 19:10      10     5.1      1.78        63.7      70.1      54.2       8      18     341     330    1016    0.00
    12/03/2016 19:20       9     5.1      1.78        63.8      70.1      54.2       9      20     339     311    1016    0.00
    12/03/2016 19:30       9     5.0      1.78        63.8      70.1      54.2      10      21     335     331    1016    0.00
    12/03/2016 19:40      10     5.0      1.78        63.8      70.1      54.2       9      24     337     321    1016    0.00
    12/03/2016 19:50      10     5.0      1.78        63.6      70.1      54.2       9      24     340     350    1016    0.00
    12/03/2016 20:00      10     4.8      1.78        63.4      70.1      54.2      10      26     337     337    1015    0.00
    12/03/2016 20:10      10     5.0      1.78        63.2      70.1      54.2       9      21     333     297    1015    0.00
    12/03/2016 20:20      10     5.1      1.78        63.2      70.1      54.2       9      22     338     355    1016    0.00
    12/03/2016 20:30      10     5.6      1.78        63.3      70.1      54.2       7      19     342     340    1016    0.00
    12/03/2016 20:40      10     5.5      1.78        63.4      70.1      54.2       9      20     335     312    1016    0.00
    12/03/2016 20:50      10     5.5      1.78        63.4      70.1      54.2       9      21     338     335    1016    0.00
    12/03/2016 21:00      10     5.7      1.78        63.3      70.1      54.2       9      20     344     321    1016    0.00
    12/03/2016 21:10      10     6.0      1.78        63.2      70.1      54.2       5      17     346     347    1016    0.00
    12/03/2016 21:20      10     6.0      1.78        63.2      70.1      54.2       5      14     355     354    1016    0.00
    12/03/2016 21:30      10     6.1      1.78        63.0      70.1      54.2       4      13      17     348    1016    0.00
    12/03/2016 21:40      11     6.2      1.78        62.7      70.1      54.2       4      12      14     319    1016    0.00
    12/03/2016 21:50      12     7.3      1.78        62.6      70.1      54.2       4      11     355     335    1016    0.00
    12/03/2016 22:00      11     7.4      1.78        62.3      70.1      54.2       2       7     335      31    1016    0.00
    12/03/2016 22:10      11     7.1      1.78        62.6      70.1      54.2       4      12     337     327    1016    0.00
    12/03/2016 22:20      11     7.4      1.78        62.9      70.1      54.2       4      14     344     348    1016    0.00
    12/03/2016 22:30      11     7.9      1.78        63.0      70.1      54.2       2       8     335     310    1017    0.00
    12/03/2016 22:40      11     8.0      1.78        62.7      70.1      54.2       3       7     339     352    1017    0.00
    12/03/2016 22:50      11     8.2      1.78        63.3      70.1      54.2       3      14     337     324    1017    0.00
    12/03/2016 23:00      12     8.4      1.78        63.5      70.1      54.2       3       8     324     288    1017    0.00
    12/03/2016 23:10      12     8.9      1.78        63.0      70.1      54.2       2       6     322       4    1017    0.00
    12/03/2016 23:20      13     9.2      1.78        62.7      70.1      54.2       1       5     166     328    1017    0.00
    12/03/2016 23:30      15    10.6      1.78        60.3      70.1      54.2       4      10     156     153    1017    0.00
    12/03/2016 23:40      15    11.0      1.78        58.1      70.1      54.2       3       8     159     177    1017    0.00
    12/03/2016 23:50      15    10.9      1.78        57.8      70.1      54.2       2       8     153     203    1016    0.00
    12/04/2016 00:00      16    11.2      1.78        57.5      70.1      54.2       2       6     171     169    1016    0.00
    12/04/2016 00:10      16    11.2      1.78        56.8      57.0      56.5       3       5     127     156    1016    0.00
    12/04/2016 00:20      16    11.5      1.78        56.6      57.0      56.3       3       7     137     132    1016    0.00
    12/04/2016 00:30      17    11.4      1.78        56.3      57.0      55.9       2       5     135     117    1016    0.00
    12/04/2016 00:40      15    11.4      1.78        56.6      58.5      55.6       1       6     216     197    1016    0.00
    12/04/2016 00:50      17    11.7      1.78        57.9      58.5      55.6       3       6     145     137    1016    0.00
    12/04/2016 01:00      17    12.0      1.78        56.3      58.5      55.5       3       6     150     143    1016    0.00
    12/04/2016 01:10      18    12.4      1.78        55.1      58.5      54.7       3       6     159     130    1016    0.00
    12/04/2016 01:20      17    11.9      1.78        55.1      58.5      54.7       3       6     141     163    1016    0.00
    12/04/2016 01:30      19    11.7      1.78        55.4      58.5      54.7       2       3     156     182    1016    0.00
    12/04/2016 01:40      21    14.7      1.78        54.7      58.5      54.2       1       5     282       9    1017    0.00
    12/04/2016 01:50      18    13.2      1.78        54.8      58.5      54.2       2       6     272     249    1017    0.00
    12/04/2016 02:00      17    14.7      1.78        54.2      58.5      53.9       2       5     298     231    1017    0.00
    12/04/2016 02:10      17    11.4      1.78        55.7      58.5      53.9       2       4     175     163    1017    0.00
    12/04/2016 02:20      17    11.9      1.78        55.4      58.5      53.9       0       4      60     171    1016    0.00
    12/04/2016 02:30      16    10.8      1.78        57.4      58.5      53.9       1       6      32     328    1016    0.00
    12/04/2016 02:40      17    12.0      1.78        57.1      58.5      53.9       2       6     241     104    1016    0.00
    12/04/2016 02:50      17    11.5      1.78        56.6      58.5      53.9       0       3     142     150    1016    0.00
    12/04/2016 03:00      15    11.2      1.78        57.4      58.5      53.9       2       6     290     334    1016    0.00
    12/04/2016 03:10      13     9.7      1.78        59.8      60.5      53.9       2       7     353      10    1016    0.00
    12/04/2016 03:20      12     8.5      1.78        60.5      60.9      53.9       2       7     352      15    1016    0.00
    12/04/2016 03:30      12     7.7      1.78        60.9      61.2      53.9       2       7     350      18    1016    0.00
    12/04/2016 03:40      13     7.9      1.78        60.7      61.2      53.9       2       7     331     320    1016    0.00
    12/04/2016 03:50      12     8.2      1.78        59.6      61.2      53.9       2      10     343     307    1016    0.00
    12/04/2016 04:00      11     6.7      1.78        60.8      61.2      53.9       5      11       0     352    1016    0.00
    12/04/2016 04:10      11     6.7      1.78        61.2      61.4      53.9       5      11     357     352    1016    0.00
    12/04/2016 04:20      11     6.9      1.78        61.0      61.4      53.9       5      13     351     344    1016    0.00
    12/04/2016 04:30      11     6.8      1.78        61.0      61.4      53.9       5      12     351      22    1016    0.00
    12/04/2016 04:40      11     6.9      1.78        61.3      61.5      53.9       5      12     355      30    1016    0.00
    12/04/2016 04:50      11     7.3      1.78        61.7      62.0      53.9       6      13     356     348    1016    0.00
    12/04/2016 05:00      11     7.6      1.78        62.1      62.4      53.9       6      13     357     353    1016    0.00
    12/04/2016 05:10      12     8.0      1.78        62.4      62.6      53.9       5      13     353     335    1016    0.00
    12/04/2016 05:20      17    10.9      1.78        59.8      62.6      53.9       2       5     283     348    1016    0.00
    12/04/2016 05:30      23    15.2      1.78        54.5      62.6      53.0       1       3     256     248    1016    0.00
    12/04/2016 05:40      24    16.7      1.78        52.4      62.6      52.1       1       4     258     242    1016    0.00
    12/04/2016 05:50      24    16.2      1.78        52.4      62.6      51.9       2       5     274     282    1016    0.00
    12/04/2016 06:00      25    17.0      1.78        52.0      62.6      51.4       1       4     297     266    1016    0.00
    12/04/2016 06:10      27    17.7      1.78        51.1      62.6      50.6       2       4     281     298    1017    0.00
    12/04/2016 06:20      25    16.9      1.78        50.7      62.6      50.4       0       3     297     298    1017    0.00
    12/04/2016 06:30      17    13.4      1.78        53.3      62.6      50.4       3      10     316     326    1017    0.00
    12/04/2016 06:40      21    14.0      1.78        54.5      62.6      50.4       1       6     256     242    1017    0.00
    12/04/2016 06:50      25    15.8      1.78        52.3      62.6      50.4       2       4     257     252    1017    0.00
    12/04/2016 07:00      27    17.3      1.78        50.8      62.6      50.3       0       2     273     263    1017    0.00
    12/04/2016 07:10      28    17.4      1.78        50.5      62.6      50.3       0       2     268     280    1017    0.00
    12/04/2016 07:20      24    17.1      1.78        51.0      62.6      50.3       0       3     228     240    1017    0.00
    12/04/2016 07:30      26    17.0      1.78        52.4      62.6      50.3       0       3     255     248    1017    0.00
    12/04/2016 07:40      26    18.1      1.78        52.8      62.6      50.3       0       2     213     224    1017    0.00
    12/04/2016 07:50      22    18.7      1.78        53.5      62.6      50.3       0       3     306     293    1017    0.00
    12/04/2016 08:00      20    16.4      1.78        56.1      62.6      50.3       2       5     284     260    1017    0.00
    12/04/2016 08:10      23    18.1      1.78        58.0      62.6      50.3       2       3     181     186    1017    0.00
    12/04/2016 08:20      21    19.6      1.78        58.3      62.6      50.3       1       3     194     203    1017    0.00
    12/04/2016 08:30      22    19.1      1.78        59.0      62.6      50.3       2       4     204     176    1017    0.00
    12/04/2016 08:40      21    20.3      1.78        59.0      62.6      50.3       1       4     205     195    1017    0.00
    12/04/2016 08:50      19    18.6      1.78        59.7      62.6      50.3       0       3     205     202    1017    0.00
    12/04/2016 09:00      17    16.4      1.78        60.5      62.6      50.3       1       4     214     246    1017    0.00
    12/04/2016 09:10      17    16.7      1.78        62.4      63.3      50.3       0       2     216     177    1017    0.00
    12/04/2016 09:20      16    16.8      1.78        63.6      64.1      50.3       2       4     193     179    1017    0.00
    12/04/2016 09:30      16    17.4      1.78        64.5      64.8      50.3       2       4     197     186    1017    0.00
    12/04/2016 09:40      18    18.8      1.78        64.8      65.1      50.3       2       5     204     196    1017    0.00
    12/04/2016 09:50      17    19.7      1.78        64.7      65.1      50.3       4       6     190     183    1017    0.00
    12/04/2016 10:00      16    18.6      1.78        65.2      66.2      50.3       2       5     207     173    1017    0.00
    12/04/2016 10:10      15    18.1      1.78        66.8      67.1      50.3       2       4     215     243    1017    0.00
    12/04/2016 10:20      14    17.2      1.78        67.6      68.1      50.3       2       4     229     212    1017    0.00
    12/04/2016 10:30      15    17.2      1.78        68.5      69.0      50.3       1       3     212     177    1017    0.00
    12/04/2016 10:40      12    17.6      1.78        69.7      70.3      50.3       2       4     190     182    1017    0.00
    12/04/2016 10:50      12    16.4      1.78        70.5      71.1      50.3       2       3     186     199    1017    0.00
    12/04/2016 11:00      12    15.3      1.78        71.3      71.7      50.3       2       4     199     184    1017    0.00
    12/04/2016 11:10      11    15.8      1.78        72.7      73.4      50.3       0       3     171     180    1016    0.00
    12/04/2016 11:20      11    16.3      1.78        74.4      75.3      50.3       0       3     123     165    1016    0.00
    12/04/2016 11:30      11    15.5      1.78        73.1      75.3      50.3       2       5     150     157    1016    0.00
    12/04/2016 11:40      10    15.1      1.78        73.8      75.3      50.3       0       3     111     103    1016    0.00
    12/04/2016 11:50      10    15.0      1.78        73.9      75.3      50.3       1       4     132     143    1016    0.00
    12/04/2016 12:00      11    14.1      1.78        73.8      75.3      50.3       2       4     106      82    1016    0.00
    12/04/2016 12:10      10    15.4      1.78        74.9      75.9      50.3       0       3     179     136    1016    0.00
    12/04/2016 12:20      10    14.8      1.78        76.1      76.8      50.3       1       4     128     131    1015    0.00
    12/04/2016 12:30      10    13.2      1.78        74.3      76.8      50.3       2       5      77      97    1015    0.00
    12/04/2016 12:40       9    13.7      1.78        74.2      76.8      50.3       2       5     115     103    1015    0.00
    12/04/2016 12:50      10    14.1      1.78        74.9      76.8      50.3       2       6     102     195    1015    0.00
    12/04/2016 13:00      10    15.9      1.78        76.8      77.6      50.3       3       6     154     152    1015    0.00
    12/04/2016 13:10       9    14.2      1.78        76.4      77.6      50.3       2       4     200     194    1015    0.00
    12/04/2016 13:20       9    13.7      1.78        75.7      77.6      50.3       2       3     206     170    1014    0.00
    12/04/2016 13:30       9    13.3      1.78        76.6      77.6      50.3       1       4     234     225    1014    0.00
    12/04/2016 13:40      11    15.0      1.78        76.1      77.6      50.3       1       3     205     262    1014    0.00
    12/04/2016 13:50      11    19.1      1.78        76.3      77.6      50.3       2       5     105      88    1014    0.00
    12/04/2016 14:00      12    18.7      1.78        76.1      77.6      50.3       2       5      89     103    1014    0.00
    12/04/2016 14:10      12    19.5      1.78        75.6      77.6      50.3       3       6     120     128    1014    0.00
    12/04/2016 14:20      13    20.0      1.78        75.6      77.6      50.3       2       5     145     143    1014    0.00
    12/04/2016 14:30      12    19.4      1.78        75.6      77.6      50.3       3       5      97      95    1014    0.00
    12/04/2016 14:40      12    20.0      1.78        75.4      77.6      50.3       2       7     119     129    1014    0.00
    12/04/2016 14:50      12    19.6      1.78        75.4      77.6      50.3       3       5      90      90    1014    0.00
    12/04/2016 15:00      12    19.9      1.78        75.1      77.6      50.3       2       6     106      96    1014    0.00
    12/04/2016 15:10      13    19.9      1.78        75.0      77.6      50.3       3       7     102      89    1014    0.00
    12/04/2016 15:20      13    19.2      1.78        74.0      77.6      50.3       4       7      86      98    1014    0.00
    12/04/2016 15:30      13    19.3      1.78        73.5      77.6      50.3       3       6      90      83    1014    0.00
    12/04/2016 15:40      13    19.2      1.78        73.1      77.6      50.3       3       6     102      88    1014    0.00
    12/04/2016 15:50      13    19.0      1.78        72.2      77.6      50.3       2       5     101     100    1014    0.00
    12/04/2016 16:00      14    19.3      1.78        71.4      77.6      50.3       2       5     101      99    1014    0.00
    12/04/2016 16:10      14    19.5      1.78        70.7      77.6      50.3       1       4      96      98    1014    0.00
    12/04/2016 16:20      15    19.3      1.78        69.9      77.6      50.3       1       3      94     101    1014    0.00
    12/04/2016 16:30      15    19.4      1.78        69.2      77.6      50.3       0       3      88      88    1014    0.00
    12/04/2016 16:40      15    19.8      1.78        68.7      77.6      50.3       2       3      59      58    1014    0.00
    12/04/2016 16:50      15    19.0      1.78        68.1      77.6      50.3       2       4      45      37    1014    0.00
    12/04/2016 17:00      16    18.3      1.78        67.3      77.6      50.3       1       3      34      42    1014    0.00
    12/04/2016 17:10      15    17.8      1.78        66.4      77.6      50.3       2       3      65      56    1014    0.00
    12/04/2016 17:20      16    17.9      1.78        65.8      77.6      50.3       0       2      46      37    1014    0.00
    12/04/2016 17:30      17    18.6      1.78        65.0      77.6      50.3       0       2      69      38    1014    0.00
    12/04/2016 17:40      17    18.4      1.78        64.4      77.6      50.3       2       3      74      65    1014    0.00
    12/04/2016 17:50      18    18.9      1.78        64.3      77.6      50.3       0       2      72      68    1014    0.00
    12/04/2016 18:00      19    20.5      1.78        63.3      77.6      50.3       0       2      58      26    1014    0.00
    12/04/2016 18:10      21    21.7      1.78        62.8      77.6      50.3       1       3      42      21    1014    0.00
    12/04/2016 18:20      22    23.0      1.78        62.8      77.6      50.3       0       3      57      58    1014    0.00
    12/04/2016 18:30      24    24.2      1.78        62.4      77.6      50.3       0       3      79      62    1014    0.00
    12/04/2016 18:40      24    25.2      1.78        62.5      77.6      50.3       2       4      67      66    1014    0.00
    12/04/2016 18:50      27    26.9      1.78        62.4      77.6      50.3       0       2      64      82    1014    0.00
    12/04/2016 19:00      30    27.9      1.78        60.8      77.6      50.3       0       0       0     212    1014    0.00
    12/04/2016 19:10      32    28.1      1.78        59.9      77.6      50.3       0       0       0      39    1014    0.00
    12/04/2016 19:20      31    28.5      1.78        58.3      77.6      50.3       0       1     207     208    1014    0.00
    12/04/2016 19:30      33    28.1      1.78        58.2      77.6      50.3       0       0       0     228    1014    0.00
    12/04/2016 19:40      34    29.2      1.78        57.2      77.6      50.3       0       0       0     297    1014    0.00
    12/04/2016 19:50      32    28.4      1.78        57.1      77.6      50.3       0       1     327     331    1014    0.00
    12/04/2016 20:00      32    27.8      1.78        57.8      77.6      50.3       0       2     337     351    1014    0.00
    12/04/2016 20:10      33    27.9      1.78        57.9      77.6      50.3       0       2     348     342    1014    0.00
    12/04/2016 20:20      33    27.9      1.78        57.2      77.6      50.3       0       1     338     333    1014    0.00
    12/04/2016 20:30      33    28.2      1.78        56.5      77.6      50.3       0       3      64      73    1014    0.00
    12/04/2016 20:40      33    28.0      1.78        56.4      77.6      50.3       0       2       9      32    1014    0.00
    12/04/2016 20:50      34    28.2      1.78        56.2      77.6      50.3       0       3      18      18    1014    0.00
    12/04/2016 21:00      35    27.6      1.78        55.8      77.6      50.3       1       3     340     186    1014    0.00
    12/04/2016 21:10      36    27.9      1.78        54.1      77.6      50.3       0       3     141     187    1014    0.00
    12/04/2016 21:20      37    28.4      1.78        54.1      77.6      50.3       0       2     358     341    1014    0.00
    12/04/2016 21:30      40    29.1      1.78        53.7      77.6      50.3       0       0     285     286    1014    0.00
    12/04/2016 21:40      41    29.1      1.78        52.7      77.6      50.3       0       1     324     329    1014    0.00
    12/04/2016 21:50      42    29.5      1.78        52.0      77.6      50.3       0       0       0     339    1014    0.00
    12/04/2016 22:00      44    30.1      1.78        51.4      77.6      50.3       0       2     131     141    1014    0.00
    12/04/2016 22:10      44    30.2      1.78        51.7      77.6      50.3       0       2       2     353    1014    0.00
    12/04/2016 22:20      43    30.1      1.78        51.7      77.6      50.3       0       1       9      28    1014    0.00
    12/04/2016 22:30      42    29.8      1.78        51.1      77.6      50.3       0       3     354     324    1014    0.00
    12/04/2016 22:40      41    28.9      1.78        51.0      77.6      50.3       0       2     344     346    1014    0.00
    12/04/2016 22:50      39    28.1      1.78        51.5      77.6      50.3       2       2     335     348    1014    0.00
    12/04/2016 23:00      42    28.1      1.78        50.9      77.6      49.9       0       2     323     334    1014    0.00
    12/04/2016 23:10      42    28.2      1.78        50.3      77.6      49.9       0       2     326     334    1014    0.00
    12/04/2016 23:20      44    28.3      1.78        50.1      77.6      49.2       0       1     321     317    1014    0.00
    12/04/2016 23:30      44    28.5      1.78        49.0      77.6      48.7       1       2     312     332    1014    0.00
    12/04/2016 23:40      43    28.3      1.78        49.7      77.6      48.7       0       3     315     321    1014    0.00
    12/04/2016 23:50      46    28.3      1.78        48.8      77.6      48.3       0       2      72      82    1014    0.00
    12/05/2016 00:00      46    28.5      1.78        48.5      77.6      48.3       0       2       8      87    1014    0.00
    12/05/2016 00:10      48    29.1      1.78        48.7      48.9      48.5       0       1     336     338    1014    0.00
    12/05/2016 00:20      49    29.3      1.78        47.9      48.9      47.4       0       0       0     327    1014    0.00
    12/05/2016 00:30      50    29.5      1.78        47.1      48.9      46.8       0       0     264     265    1014    0.00
    12/05/2016 00:40      50    29.4      1.78        47.0      48.9      46.7       0       0       0     295    1013    0.00
    12/05/2016 00:50      51    29.6      1.78        47.0      48.9      46.7       0       0       0      52    1013    0.00
    12/05/2016 01:00      51    29.7      1.78        46.8      48.9      46.7       0       0       0      87    1013    0.00
    12/05/2016 01:10      50    29.6      1.78        46.8      48.9      46.5       0       2     358       3    1013    0.00
    12/05/2016 01:20      50    29.4      1.78        47.3      48.9      46.5       0       1      42      94    1013    0.00
    12/05/2016 01:30      51    29.4      1.78        46.7      48.9      46.1       0       2     328     300    1013    0.00
    12/05/2016 01:40      50    29.0      1.78        46.6      48.9      46.1       0       2     329     335    1013    0.00
    12/05/2016 01:50      50    28.7      1.78        46.6      48.9      46.1       0       2     332     336    1013    0.00
    12/05/2016 02:00      51    28.5      1.78        45.9      48.9      45.6       0       0       0     322    1013    0.00
    12/05/2016 02:10      50    28.5      1.78        45.7      48.9      45.3       0       2     328     335    1013    0.00
    12/05/2016 02:20      50    28.0      1.78        45.9      48.9      45.3       0       1      55      53    1013    0.00
    12/05/2016 02:30      49    27.8      1.78        45.9      48.9      45.3       0       2     338     336    1013    0.00
    12/05/2016 02:40      52    28.0      1.78        45.3      48.9      44.7       0       2     266     250    1013    0.00
    12/05/2016 02:50      51    28.0      1.78        44.5      48.9      44.3       0       2     261     246    1013    0.00
    12/05/2016 03:00      52    28.1      1.78        44.9      48.9      44.3       0       1     307     335    1013    0.00
    12/05/2016 03:10      52    28.2      1.78        44.4      48.9      44.1       0       2     308     332    1013    0.00
    12/05/2016 03:20      52    28.5      1.78        45.0      48.9      44.1       0       3     330     343    1013    0.00
    12/05/2016 03:30      52    28.4      1.78        44.9      48.9      44.1       0       2      38      35    1013    0.00
    12/05/2016 03:40      52    28.2      1.78        44.9      48.9      44.1       0       2     340     342    1013    0.00
    12/05/2016 03:50      54    28.3      1.78        44.2      48.9      43.8       0       1     178     177    1012    0.00
    12/05/2016 04:00      54    28.5      1.78        43.8      48.9      43.5       0       2     357     336    1012    0.00
    12/05/2016 04:10      50    28.0      1.78        45.0      48.9      43.5       0       2     347     340    1012    0.00
    12/05/2016 04:20      53    28.2      1.78        44.6      48.9      43.5       0       2     346     336    1012    0.00
    12/05/2016 04:30      54    28.2      1.78        44.0      48.9      43.5       0       3     313     302    1012    0.00
    12/05/2016 04:40      53    28.0      1.78        44.2      48.9      43.5       0       3      17      22    1012    0.00
    12/05/2016 04:50      55    28.0      1.78        44.1      48.9      43.5       1       3     179      50    1012    0.00
    12/05/2016 05:00      56    28.5      1.78        43.7      48.9      43.4       1       5      78     168    1012    0.00
    12/05/2016 05:10      56    29.2      1.78        43.9      48.9      43.4       0       2     106     205    1012    0.00
    12/05/2016 05:20      58    29.2      1.78        43.4      48.9      43.0       0       2     287     286    1012    0.00
    12/05/2016 05:30      57    29.2      1.78        43.0      48.9      42.6       1       3     330     337    1012    0.00
    12/05/2016 05:40      59    29.1      1.78        42.8      48.9      42.3       0       3     248     234    1013    0.00
    12/05/2016 05:50      59    29.3      1.78        42.4      48.9      42.3       0       2     320     349    1013    0.00
    12/05/2016 06:00      59    29.1      1.78        42.5      48.9      42.3       0       0     339     331    1013    0.00
    12/05/2016 06:10      61    29.0      1.78        42.2      48.9      41.5       0       3     262     255    1013    0.00
    12/05/2016 06:20      61    29.1      1.78        41.8      48.9      41.5       0       1     291     255    1013    0.00
    12/05/2016 06:30      58    29.1      1.78        41.9      48.9      41.4       0       1     314     259    1013    0.00
    12/05/2016 06:40      58    28.8      1.78        42.5      48.9      41.4       0       0     337     338    1013    0.00
    12/05/2016 06:50      60    28.9      1.78        42.1      48.9      41.4       0       0       0     334    1013    0.00
    12/05/2016 07:00      60    29.3      1.78        42.1      48.9      41.4       0       0     310     313    1013    0.00
    12/05/2016 07:10      61    29.5      1.78        42.5      48.9      41.4       1       3     296     254    1013    0.00
    12/05/2016 07:20      59    29.9      1.78        42.6      48.9      41.4       1       3     258     255    1013    0.00
    12/05/2016 07:30      53    29.3      1.78        44.1      48.9      41.4       0       2     248     246    1013    0.00
    12/05/2016 07:40      52    29.5      1.78        45.4      48.9      41.4       0       2     260     243    1013    0.00
    12/05/2016 07:50      47    30.0      1.78        46.8      48.9      41.4       0       3     262     304    1013    0.00
    12/05/2016 08:00      47    28.7      1.78        48.3      48.9      41.4       0       2     278     258    1013    0.00
    12/05/2016 08:10      45    29.0      1.78        49.0      49.5      41.4       0       1     324     353    1013    0.00
    12/05/2016 08:20      44    28.8      1.78        49.8      50.5      41.4       0       0       0     355    1013    0.00
    12/05/2016 08:30      40    28.6      1.78        51.1      51.9      41.4       0       0      54      68    1013    0.00
    12/05/2016 08:40      36    27.5      1.78        52.9      54.0      41.4       0       2      92     110    1013    0.00
    12/05/2016 08:50      35    27.9      1.78        54.4      54.7      41.4       2       3      84      69    1013    0.00
    12/05/2016 09:00      36    27.8      1.78        55.0      55.4      41.4       1       3     125     148    1013    0.00
    12/05/2016 09:10      33    28.1      1.78        56.0      56.4      41.4       1       3     148     135    1014    0.00
    12/05/2016 09:20      33    28.2      1.78        56.8      57.2      41.4       2       4     153     177    1014    0.00
    12/05/2016 09:30      35    27.9      1.78        56.3      57.2      41.4       1       3     121      97    1014    0.00
    12/05/2016 09:40      33    29.6      1.78        57.8      58.3      41.4       2       4     151     164    1014    0.00
    12/05/2016 09:50      34    28.6      1.78        57.5      58.3      41.4       2       4     103     145    1014    0.00
    12/05/2016 10:00      35    29.4      1.78        57.0      58.3      41.4       3       5      82     104    1014    0.00
    12/05/2016 10:10      35    30.1      1.78        57.3      58.3      41.4       2       4     125      89    1014    0.00
    12/05/2016 10:20      35    32.0      1.78        57.9      58.5      41.4       3       6     142     134    1013    0.00
    12/05/2016 10:30      35    30.9      1.78        58.1      58.5      41.4       2       4      85     107    1014    0.00
    12/05/2016 10:40      35    30.5      1.78        58.2      58.5      41.4       2       5      77      61    1014    0.00
    12/05/2016 10:50      35    30.8      1.78        58.4      59.3      41.4       2       4      44      91    1014    0.00
    12/05/2016 11:00      39    33.3      1.78        59.4      60.0      41.4       2       5      45      54    1014    0.00
    12/05/2016 11:10      39    35.5      1.78        60.6      61.2      41.4       2       4     112     106    1013    0.00
    12/05/2016 11:20      37    35.4      1.78        61.4      61.9      41.4       2       5     102      73    1013    0.00
    12/05/2016 11:30      37    34.6      1.78        61.4      61.9      41.4       3       5      96      78    1013    0.00
    12/05/2016 11:40      42    37.0      1.78        61.6      61.9      41.4       2       5      95      96    1013    0.00
    12/05/2016 11:50      40    38.5      1.78        62.3      63.2      41.4       3       6     111      71    1013    0.00
    12/05/2016 12:00      41    38.8      1.78        62.8      63.2      41.4       2       5     102      92    1012    0.00
    12/05/2016 12:10      41    38.7      1.78        62.6      63.2      41.4       2       5     117      63    1012    0.00
    12/05/2016 12:20      46    39.8      1.78        63.2      63.6      41.4       3       6     125     155    1012    0.00
    12/05/2016 12:30      46    42.4      1.78        64.1      64.6      41.4       4       6     126     145    1012    0.00
    12/05/2016 12:40      48    43.2      1.78        63.3      64.6      41.4       3       6     108     120    1012    0.00
    12/05/2016 12:50      46    43.3      1.78        63.9      64.6      41.4       2       5     125     147    1012    0.00
    12/05/2016 13:00      43    42.3      1.78        64.6      65.0      41.4       2       6     136     148    1012    0.00
    12/05/2016 13:10      43    42.3      1.78        65.3      65.8      41.4       3       5     143     169    1012    0.00
    12/05/2016 13:20      42    42.0      1.78        65.7      66.2      41.4       3       7     136      87    1012    0.00
    12/05/2016 13:30      40    41.0      1.78        65.2      66.2      41.4       3       6     128      77    1012    0.00
    12/05/2016 13:40      39    39.8      1.78        65.3      66.3      41.4       3       7     100      81    1012    0.00
    12/05/2016 13:50      39    39.6      1.78        65.0      66.3      41.4       2       5      92      96    1012    0.00
    12/05/2016 14:00      38    39.6      1.78        65.7      66.3      41.4       2       4     119     105    1011    0.00
    12/05/2016 14:10      38    39.5      1.78        66.5      66.9      41.4       2       5     159     122    1011    0.00
    12/05/2016 14:20      39    40.3      1.78        66.1      66.9      41.4       3       6     112      95    1011    0.00
    12/05/2016 14:30      41    40.8      1.78        65.6      66.9      41.4       3       7      95     150    1011    0.00
    12/05/2016 14:40      42    41.3      1.78        65.7      66.9      41.4       3       8      85      49    1011    0.00
    12/05/2016 14:50      42    42.0      1.78        65.9      66.9      41.4       3       6     126     135    1011    0.00
    12/05/2016 15:00      42    41.8      1.78        65.5      66.9      41.4       2       5      98      54    1011    0.00
    12/05/2016 15:10      42    41.6      1.78        65.2      66.9      41.4       3       7     106      99    1011    0.00
    12/05/2016 15:20      42    42.0      1.78        65.6      66.9      41.4       2       5     135     138    1011    0.00
    12/05/2016 15:30      43    42.0      1.78        65.3      66.9      41.4       2       6     112      74    1011    0.00
    12/05/2016 15:40      43    42.1      1.78        64.9      66.9      41.4       2       5     125      97    1011    0.00
    12/05/2016 15:50      44    42.1      1.78        64.9      66.9      41.4       3       5     134     146    1011    0.00
    12/05/2016 16:00      46    42.5      1.78        64.3      66.9      41.4       3       6     138     151    1011    0.00
    12/05/2016 16:10      47    43.0      1.78        64.0      66.9      41.4       3       6     147     160    1011    0.00
    12/05/2016 16:20      48    43.0      1.78        63.1      66.9      41.4       3       6     143     135    1011    0.00
    12/05/2016 16:30      51    43.2      1.78        62.2      66.9      41.4       2       5     130     146    1011    0.00
    12/05/2016 16:40      58    44.9      1.78        61.4      66.9      41.4       3       5     145     135    1011    0.00
    12/05/2016 16:50      61    46.2      1.78        60.4      66.9      41.4       1       4     141     153    1012    0.00
    12/05/2016 17:00      63    46.5      1.78        59.6      66.9      41.4       2       3     150     183    1012    0.00
    12/05/2016 17:10      64    46.5      1.78        58.8      66.9      41.4       1       3     154     167    1012    0.00
    12/05/2016 17:20      65    46.3      1.78        58.1      66.9      41.4       1       3     155     150    1012    0.00
    12/05/2016 17:30      65    45.8      1.78        57.5      66.9      41.4       0       2     154     159    1012    0.00
    12/05/2016 17:40      67    45.5      1.78        56.8      66.9      41.4       0       1     149     148    1012    0.00
    12/05/2016 17:50      68    45.5      1.78        56.3      66.9      41.4       0       0     289     294    1012    0.00
    12/05/2016 18:00      69    45.7      1.78        56.0      66.9      41.4       0       1     306     311    1012    0.00
    12/05/2016 18:10      69    45.8      1.78        55.8      66.9      41.4       0       1     322     322    1012    0.00
    12/05/2016 18:20      71    45.6      1.78        55.3      66.9      41.4       0       1     328     332    1012    0.00
    12/05/2016 18:30      72    45.5      1.78        54.6      66.9      41.4       0       2     103      84    1012    0.00
    12/05/2016 18:40      72    45.9      1.78        54.6      66.9      41.4       1       2      83      78    1012    0.00
    12/05/2016 18:50      71    45.8      1.78        54.7      66.9      41.4       1       2     102      77    1012    0.00
    12/05/2016 19:00      72    45.5      1.78        54.5      66.9      41.4       1       3      83      70    1012    0.00